sensor_id;sensor_type;location;lat;lon;timestamp;pressure;altitude;pressure_sealevel;temperature;humidity
3697;BME280;60662;48.810;8.872;2023-01-29T10:07:13;97603.75;;;-0.94;74.70
3697;BME280;60662;48.810;8.872;2023-01-29T10:13:10;97604.25;;;-0.60;74.34
3697;BME280;60662;48.810;8.872;2023-01-29T10:24:23;97597.03;;;1.45;68.39
3697;BME280;60662;48.810;8.872;2023-01-29T10:25:26;97600.50;;;1.52;66.64
3697;BME280;60662;48.810;8.872;2023-01-29T10:26:28;97596.78;;;1.11;67.41
3697;BME280;60662;48.810;8.872;2023-01-29T10:27:33;97602.78;;;1.13;68.04
3697;BME280;60662;48.810;8.872;2023-01-29T10:31:28;97617.94;;;0.02;70.48
3697;BME280;60662;48.810;8.872;2023-01-29T12:25:40;97483.94;;;1.94;66.77
3697;BME280;60662;48.810;8.872;2023-01-29T12:28:30;97478.88;;;2.39;65.38
3697;BME280;60662;48.810;8.872;2023-01-29T12:29:51;97476.25;;;2.04;65.16
3697;BME280;60662;48.810;8.872;2023-01-29T12:31:11;97477.84;;;1.74;66.08
3697;BME280;60662;48.810;8.872;2023-01-29T12:34:09;97465.16;;;2.81;64.45
3697;BME280;60662;48.810;8.872;2023-01-29T12:35:34;97478.72;;;3.62;62.65
3697;BME280;60662;48.810;8.872;2023-01-29T12:36:48;97472.66;;;3.70;61.53
3697;BME280;60662;48.810;8.872;2023-01-29T12:37:59;97463.31;;;3.38;61.77
3697;BME280;60662;48.810;8.872;2023-01-29T12:39:02;97486.53;;;3.41;61.63
3697;BME280;60662;48.810;8.872;2023-01-29T12:40:11;97462.34;;;3.63;61.55
3697;BME280;60662;48.810;8.872;2023-01-29T12:41:34;97470.09;;;3.67;61.75
3697;BME280;60662;48.810;8.872;2023-01-29T12:42:40;97465.03;;;3.38;61.92
3697;BME280;60662;48.810;8.872;2023-01-29T12:43:47;97463.41;;;2.70;63.02
3697;BME280;60662;48.810;8.872;2023-01-29T12:44:53;97456.56;;;2.71;63.17
3697;BME280;60662;48.810;8.872;2023-01-29T12:45:57;97447.91;;;3.03;62.34
3697;BME280;60662;48.810;8.872;2023-01-29T12:47:02;97452.19;;;3.07;62.04
3697;BME280;60662;48.810;8.872;2023-01-29T13:09:04;97436.78;;;2.67;66.28
3697;BME280;60662;48.810;8.872;2023-01-29T13:11:24;97426.44;;;2.76;64.55
3697;BME280;60662;48.810;8.872;2023-01-29T13:12:28;97424.72;;;2.83;63.44
3697;BME280;60662;48.810;8.872;2023-01-29T13:13:39;97430.75;;;2.83;63.18
3697;BME280;60662;48.810;8.872;2023-01-29T13:14:47;97428.00;;;3.48;61.98
3697;BME280;60662;48.810;8.872;2023-01-29T13:15:51;97431.25;;;3.89;61.85
3697;BME280;60662;48.810;8.872;2023-01-29T13:17:11;97429.63;;;3.66;62.13
3697;BME280;60662;48.810;8.872;2023-01-29T13:19:35;97411.88;;;2.36;65.09
3697;BME280;60662;48.810;8.872;2023-01-29T13:28:29;97419.47;;;1.59;66.96
3697;BME280;60662;48.810;8.872;2023-01-29T13:29:31;97410.94;;;1.88;66.77
3697;BME280;60662;48.810;8.872;2023-01-29T14:25:58;97392.06;;;1.86;67.71
3697;BME280;60662;48.810;8.872;2023-01-29T14:27:00;97397.25;;;2.15;66.62
3697;BME280;60662;48.810;8.872;2023-01-29T14:28:04;97413.56;;;2.67;66.10
3697;BME280;60662;48.810;8.872;2023-01-29T14:42:56;97414.34;;;1.85;68.98
3697;BME280;60662;48.810;8.872;2023-01-29T14:45:38;97410.09;;;1.96;67.65
3697;BME280;60662;48.810;8.872;2023-01-29T14:46:42;97416.97;;;1.96;67.58
3697;BME280;60662;48.810;8.872;2023-01-29T14:48:49;97416.94;;;1.73;67.69
3697;BME280;60662;48.810;8.872;2023-01-29T14:49:55;97413.50;;;1.75;67.23
3697;BME280;60662;48.810;8.872;2023-01-29T14:50:58;97406.69;;;2.13;66.66
3697;BME280;60662;48.810;8.872;2023-01-29T14:52:09;97417.84;;;2.32;66.52
3697;BME280;60662;48.810;8.872;2023-01-29T14:55:04;97410.09;;;1.86;66.44
3697;BME280;60662;48.810;8.872;2023-01-29T14:56:20;97411.72;;;1.62;67.18
3697;BME280;60662;48.810;8.872;2023-01-29T14:57:25;97413.44;;;1.58;67.90
3697;BME280;60662;48.810;8.872;2023-01-29T14:58:38;97412.56;;;1.49;68.04
3697;BME280;60662;48.810;8.872;2023-01-29T14:59:50;97405.81;;;1.91;67.78
3697;BME280;60662;48.810;8.872;2023-01-29T15:00:56;97418.69;;;1.91;67.67
3697;BME280;60662;48.810;8.872;2023-01-29T15:02:15;97407.53;;;1.92;67.06
3697;BME280;60662;48.810;8.872;2023-01-29T15:04:30;97370.63;;;2.10;66.12
3697;BME280;60662;48.810;8.872;2023-01-29T15:05:36;97411.84;;;2.49;65.33
3697;BME280;60662;48.810;8.872;2023-01-29T15:06:45;97404.13;;;2.64;64.96
3697;BME280;60662;48.810;8.872;2023-01-29T15:07:54;97405.81;;;2.74;64.65
3697;BME280;60662;48.810;8.872;2023-01-29T15:09:05;97402.38;;;2.71;64.50
3697;BME280;60662;48.810;8.872;2023-01-29T15:10:16;97398.94;;;2.55;64.60
3697;BME280;60662;48.810;8.872;2023-01-29T15:11:43;97398.97;;;2.50;64.93
3697;BME280;60662;48.810;8.872;2023-01-29T15:13:16;97410.13;;;2.71;64.27
3697;BME280;60662;48.810;8.872;2023-01-29T15:14:28;97408.38;;;2.84;64.10
3697;BME280;60662;48.810;8.872;2023-01-29T15:16:05;97428.19;;;2.58;64.57
3697;BME280;60662;48.810;8.872;2023-01-29T15:17:24;97423.91;;;2.31;65.43
3697;BME280;60662;48.810;8.872;2023-01-29T15:18:38;97420.44;;;2.17;65.98
3697;BME280;60662;48.810;8.872;2023-01-29T15:19:45;97423.88;;;2.34;65.51
3697;BME280;60662;48.810;8.872;2023-01-29T15:20:48;97417.00;;;2.18;65.92
3697;BME280;60662;48.810;8.872;2023-01-29T15:23:16;97403.22;;;2.73;64.99
3697;BME280;60662;48.810;8.872;2023-01-29T15:24:23;97416.09;;;2.85;64.47
3697;BME280;60662;48.810;8.872;2023-01-29T15:25:26;97433.28;;;3.08;64.41
3697;BME280;60662;48.810;8.872;2023-01-29T15:26:29;97416.91;;;3.17;63.68
3697;BME280;60662;48.810;8.872;2023-01-29T15:27:32;97425.41;;;3.39;63.31
3697;BME280;60662;48.810;8.872;2023-01-29T15:28:34;97405.63;;;3.36;63.68
3697;BME280;60662;48.810;8.872;2023-01-29T15:29:36;97420.31;;;3.28;63.58
3697;BME280;60662;48.810;8.872;2023-01-29T15:30:38;97408.34;;;2.93;63.71
3697;BME280;60662;48.810;8.872;2023-01-29T15:31:40;97419.53;;;3.07;63.72
3697;BME280;60662;48.810;8.872;2023-01-29T15:32:43;97412.56;;;3.25;63.64
3697;BME280;60662;48.810;8.872;2023-01-29T15:33:47;97391.16;;;2.93;63.37
3697;BME280;60662;48.810;8.872;2023-01-29T15:34:49;97365.41;;;2.72;63.92
3697;BME280;60662;48.810;8.872;2023-01-29T15:36:01;97408.28;;;3.19;63.58
3697;BME280;60662;48.810;8.872;2023-01-29T15:37:30;97410.00;;;3.20;63.54
3697;BME280;60662;48.810;8.872;2023-01-29T15:38:32;97415.22;;;3.03;63.84
3697;BME280;60662;48.810;8.872;2023-01-29T15:39:41;97421.94;;;3.48;63.45
3697;BME280;60662;48.810;8.872;2023-01-29T15:42:13;97414.22;;;3.49;63.43
3697;BME280;60662;48.810;8.872;2023-01-29T15:43:34;97405.69;;;3.27;63.34
3697;BME280;60662;48.810;8.872;2023-01-29T15:44:43;97418.53;;;3.41;63.11
3697;BME280;60662;48.810;8.872;2023-01-29T15:45:46;97413.56;;;2.74;64.19
3697;BME280;60662;48.810;8.872;2023-01-29T15:46:57;97400.69;;;2.26;65.40
3697;BME280;60662;48.810;8.872;2023-01-29T15:48:05;97412.69;;;2.09;66.85
3697;BME280;60662;48.810;8.872;2023-01-29T15:49:13;97409.19;;;1.73;67.43
3697;BME280;60662;48.810;8.872;2023-01-29T15:50:16;97408.31;;;1.69;68.19
